createdAt,value
2023-01-27T00:02:23.883Z,101183.25
2023-01-27T00:07:27.939Z,101179.13
2023-01-27T00:12:53.530Z,101162.50
2023-01-27T00:17:56.227Z,101172.97
2023-01-27T00:23:24.953Z,101165.06
2023-01-27T00:28:33.583Z,101158.00
2023-01-27T00:33:47.600Z,101146.34
2023-01-27T00:38:54.837Z,101149.53
2023-01-27T00:44:15.488Z,101141.03
2023-01-27T00:49:32.305Z,101136.53
2023-01-27T00:54:39.555Z,101126.63
2023-01-27T00:59:49.722Z,101129.19
2023-01-27T01:04:57.777Z,101124.25
2023-01-27T01:10:16.007Z,101120.31
2023-01-27T01:15:45.851Z,101118.66
2023-01-27T01:21:08.361Z,101121.47
2023-01-27T01:26:14.518Z,101117.69
2023-01-27T01:31:26.574Z,101108.16
2023-01-27T01:36:29.863Z,101109.66
2023-01-27T01:41:36.495Z,101111.78
2023-01-27T01:46:40.610Z,101102.94
2023-01-27T01:51:56.714Z,101115.41
2023-01-27T01:57:21.087Z,101111.28
2023-01-27T02:02:26.741Z,101117.38
2023-01-27T02:08:09.210Z,101108.06
2023-01-27T02:13:15.797Z,101107.22
2023-01-27T02:20:51.188Z,101107.91
2023-01-27T02:26:30.199Z,101106.47
2023-01-27T02:31:33.169Z,101097.69
2023-01-27T02:36:48.690Z,101097.69
2023-01-27T02:41:55.655Z,101090.16
2023-01-27T02:47:23.106Z,101089.94
2023-01-27T02:52:34.559Z,101085.59
2023-01-27T02:57:37.828Z,101088.06
2023-01-27T03:03:00.693Z,101084.94
2023-01-27T03:08:02.888Z,101074.63
2023-01-27T03:13:13.300Z,101074.50
2023-01-27T03:18:22.290Z,101070.19
2023-01-27T03:23:46.771Z,101075.63
2023-01-27T03:29:13.754Z,101074.28
2023-01-27T03:34:27.917Z,101081.47
2023-01-27T03:39:58.699Z,101076.22
2023-01-27T03:45:24.680Z,101076.97
2023-01-27T03:50:53.624Z,101079.81
2023-01-27T03:56:06.143Z,101076.03
2023-01-27T04:01:29.327Z,101069.44
2023-01-27T04:06:58.242Z,101064.72
2023-01-27T04:12:05.585Z,101068.25
2023-01-27T04:17:25.730Z,101067.88
2023-01-27T04:22:33.124Z,101070.34
2023-01-27T04:27:42.512Z,101064.94
2023-01-27T04:38:05.931Z,101072.16
2023-01-27T04:43:12.111Z,101060.88
2023-01-27T04:48:19.150Z,101056.88
2023-01-27T04:53:24.370Z,101061.00
2023-01-27T04:58:37.011Z,101058.69
2023-01-27T05:18:51.894Z,101060.19
2023-01-27T05:23:54.182Z,101062.25
2023-01-27T05:28:59.283Z,101067.41
2023-01-27T05:34:02.649Z,101068.53
2023-01-27T05:39:05.678Z,101069.09
2023-01-27T05:44:12.170Z,101064.81
2023-01-27T05:49:14.067Z,101083.63
2023-01-27T05:54:19.179Z,101067.72
2023-01-27T05:59:25.721Z,101085.22
2023-01-27T06:04:27.589Z,101070.94
2023-01-27T06:09:29.450Z,101073.75
2023-01-27T06:14:31.297Z,101073.97
2023-01-27T06:19:33.474Z,101079.59
2023-01-27T06:24:35.518Z,101067.97
2023-01-27T06:29:37.434Z,101075.47
2023-01-27T06:34:40.608Z,101083.00
2023-01-27T06:39:49.783Z,101074.72
2023-01-27T06:44:53.322Z,101086.00
2023-01-27T06:49:55.192Z,101081.03
2023-01-27T06:54:57.134Z,101077.22
2023-01-27T06:59:58.993Z,101084.66
2023-01-27T07:05:00.836Z,101084.91
2023-01-27T07:10:03.480Z,101087.09
2023-01-27T07:15:06.516Z,101096.09
2023-01-27T07:20:12.106Z,101084.69
2023-01-27T07:25:14.536Z,101086.47
2023-01-27T07:30:16.810Z,101092.44
2023-01-27T07:35:18.936Z,101084.50
2023-01-27T07:40:20.790Z,101093.34
2023-01-27T07:45:28.529Z,101099.28
2023-01-27T07:50:30.705Z,101101.31
2023-01-27T07:55:33.428Z,101102.50
2023-01-27T08:00:36.173Z,101095.16
2023-01-27T08:05:47.749Z,101096.84
2023-01-27T08:10:54.539Z,101118.09
2023-01-27T08:16:00.276Z,101118.97
2023-01-27T08:21:06.613Z,101109.09
2023-01-27T08:26:08.626Z,101121.75
2023-01-27T08:31:13.328Z,101135.44
2023-01-27T08:36:17.141Z,101131.81
2023-01-27T08:41:25.754Z,101138.72
2023-01-27T08:46:27.747Z,101145.09
2023-01-27T08:51:29.688Z,101144.38
2023-01-27T08:56:31.653Z,101148.81
2023-01-27T09:01:33.551Z,101160.78
2023-01-27T09:06:35.649Z,101160.25
2023-01-27T09:11:40.839Z,101164.13
2023-01-27T09:16:42.766Z,101179.94
2023-01-27T09:21:44.699Z,101174.09
2023-01-27T09:26:47.080Z,101177.75
2023-01-27T09:31:51.859Z,101180.56
2023-01-27T09:36:59.142Z,101184.59
2023-01-27T09:42:26.812Z,101182.31
2023-01-27T09:47:34.740Z,101182.56
2023-01-27T09:52:55.026Z,101185.75
2023-01-27T09:58:19.629Z,101176.97
2023-01-27T10:03:43.425Z,101180.56
2023-01-27T10:09:13.300Z,101198.22
2023-01-27T10:14:21.396Z,101180.63
2023-01-27T10:19:35.274Z,101184.59
2023-01-27T10:25:00.752Z,101189.56
2023-01-27T10:30:02.621Z,101190.50
2023-01-27T10:35:16.066Z,101187.38
2023-01-27T10:40:43.624Z,101181.81
2023-01-27T10:46:27.228Z,101177.50
2023-01-27T10:51:37.585Z,101183.78
2023-01-27T10:56:42.523Z,101179.13
2023-01-27T11:01:50.153Z,101180.44
2023-01-27T11:06:54.174Z,101171.91
2023-01-27T11:12:01.013Z,101173.56
2023-01-27T11:17:24.675Z,101170.41
2023-01-27T11:23:04.611Z,101178.66
2023-01-27T11:28:31.522Z,101163.00
2023-01-27T11:33:40.717Z,101157.53
2023-01-27T11:38:42.675Z,101152.28
2023-01-27T11:43:45.087Z,101152.19
2023-01-27T11:48:52.876Z,101140.59
2023-01-27T11:54:19.047Z,101134.25
2023-01-27T11:59:28.485Z,101134.78
2023-01-27T12:04:51.838Z,101131.81
2023-01-27T12:09:54.156Z,101124.03
2023-01-27T12:14:57.812Z,101121.28
2023-01-27T12:20:06.417Z,101116.75
2023-01-27T12:25:29.326Z,101117.06
2023-01-27T12:30:37.128Z,101118.75
2023-01-27T12:35:40.241Z,101118.94
2023-01-27T12:40:45.190Z,101114.34
2023-01-27T12:46:03.378Z,101110.22
2023-01-27T12:51:14.461Z,101113.50
2023-01-27T12:56:23.001Z,101110.22
2023-01-27T13:01:38.029Z,101116.22
2023-01-27T13:07:03.439Z,101107.75
2023-01-27T13:12:17.222Z,101098.06
2023-01-27T13:17:52.771Z,101099.88
2023-01-27T13:23:03.449Z,101093.97
2023-01-27T13:28:09.075Z,101091.47
2023-01-27T13:33:45.142Z,101086.63
2023-01-27T13:38:54.500Z,101093.25
2023-01-27T13:44:03.498Z,101094.84
2023-01-27T13:49:31.383Z,101106.19
2023-01-27T13:54:33.830Z,101108.16
2023-01-27T13:59:52.999Z,101113.28
2023-01-27T14:05:28.645Z,101104.88
2023-01-27T14:10:36.545Z,101113.16
2023-01-27T14:16:25.892Z,101111.09
2023-01-27T14:21:44.777Z,101112.44
2023-01-27T14:26:57.063Z,101114.47
2023-01-27T14:32:17.802Z,101118.66
2023-01-27T14:37:37.985Z,101115.91
2023-01-27T14:43:01.488Z,101120.38
2023-01-27T14:48:28.242Z,101118.94
2023-01-27T14:53:39.167Z,101118.19
2023-01-27T14:58:54.276Z,101129.78
2023-01-27T15:04:10.701Z,101121.00
2023-01-27T15:09:22.705Z,101135.19
2023-01-27T15:14:45.926Z,101131.88
2023-01-27T15:20:13.557Z,101142.84
2023-01-27T15:25:29.697Z,101142.78
2023-01-27T15:30:38.101Z,101144.81
2023-01-27T15:35:43.128Z,101152.44
2023-01-27T15:41:01.936Z,101156.06
2023-01-27T15:46:28.399Z,101155.69
2023-01-27T15:51:36.821Z,101158.09
2023-01-27T15:56:41.769Z,101156.13
2023-01-27T16:01:43.699Z,101158.28
2023-01-27T16:06:53.380Z,101172.44
2023-01-27T16:12:05.141Z,101183.03
2023-01-27T16:17:25.073Z,101174.97
2023-01-27T16:22:28.831Z,101176.44
2023-01-27T16:27:36.893Z,101176.69
2023-01-27T16:32:52.399Z,101183.78
2023-01-27T16:38:21.971Z,101198.06
2023-01-27T16:43:31.661Z,101191.63
2023-01-27T16:48:45.738Z,101198.53
2023-01-27T16:53:52.753Z,101202.41
2023-01-27T16:59:08.061Z,101207.91
2023-01-27T17:04:20.607Z,101207.41
2023-01-27T17:09:28.009Z,101212.59
2023-01-27T17:14:42.719Z,101216.97
2023-01-27T17:19:48.490Z,101216.16
2023-01-27T17:24:54.153Z,101226.47
2023-01-27T17:30:04.053Z,101229.69
2023-01-27T17:35:08.673Z,101238.88
2023-01-27T17:40:15.973Z,101254.63
2023-01-27T17:45:29.849Z,101249.94
2023-01-27T17:50:36.590Z,101258.25
2023-01-27T17:55:42.331Z,101265.84
2023-01-27T18:00:45.936Z,101270.94
2023-01-27T18:05:51.308Z,101276.88
2023-01-27T18:10:53.506Z,101282.81
2023-01-27T18:16:19.442Z,101280.84
2023-01-27T18:21:27.046Z,101285.69
2023-01-27T18:26:33.280Z,101294.09
2023-01-27T18:31:44.241Z,101299.78
2023-01-27T18:37:11.427Z,101294.81
2023-01-27T18:42:16.899Z,101295.31
2023-01-27T18:47:18.738Z,101305.03
2023-01-27T18:52:20.684Z,101309.81
2023-01-27T18:57:22.591Z,101312.44
2023-01-27T19:02:24.699Z,101307.38
2023-01-27T19:07:26.830Z,101306.81
2023-01-27T19:12:30.879Z,101306.97
2023-01-27T19:17:32.922Z,101308.28
2023-01-27T19:22:35.156Z,101325.06
2023-01-27T19:27:43.844Z,101321.44
2023-01-27T19:32:45.812Z,101329.47
2023-01-27T19:37:48.636Z,101328.31
2023-01-27T19:42:51.060Z,101327.16
2023-01-27T19:47:53.099Z,101331.41
2023-01-27T19:52:55.062Z,101325.84
2023-01-27T19:57:56.892Z,101321.13
2023-01-27T20:02:59.145Z,101325.66
2023-01-27T20:08:06.346Z,101319.88
2023-01-27T20:13:16.329Z,101328.50
2023-01-27T20:18:19.006Z,101334.31
2023-01-27T20:23:20.921Z,101327.59
2023-01-27T20:28:23.260Z,101326.31
2023-01-27T20:33:25.268Z,101325.50
2023-01-27T20:38:27.391Z,101328.56
2023-01-27T20:43:35.231Z,101336.22
2023-01-27T20:48:37.609Z,101331.84
2023-01-27T20:53:45.614Z,101336.56
2023-01-27T20:58:48.309Z,101352.13
2023-01-27T21:03:50.723Z,101355.63
2023-01-27T21:08:52.733Z,101360.31
2023-01-27T21:13:54.619Z,101363.81
2023-01-27T21:18:56.489Z,101364.59
2023-01-27T21:24:02.404Z,101364.94
2023-01-27T21:29:05.326Z,101382.13
2023-01-27T21:34:10.704Z,101378.81
2023-01-27T21:39:14.096Z,101387.50
2023-01-27T21:44:39.785Z,101387.13
2023-01-27T21:50:02.801Z,101385.28
2023-01-27T21:55:11.001Z,101387.84
2023-01-27T22:00:19.036Z,101379.13
2023-01-27T22:05:26.338Z,101368.44
2023-01-27T22:10:30.068Z,101385.66
2023-01-27T22:15:32.340Z,101388.38
2023-01-27T22:20:34.157Z,101395.66
2023-01-27T22:25:36.137Z,101387.41
2023-01-27T22:30:39.728Z,101389.28
2023-01-27T22:35:41.704Z,101402.91
2023-01-27T22:40:43.585Z,101404.19
2023-01-27T22:45:45.414Z,101402.16
2023-01-27T22:50:47.364Z,101405.31
2023-01-27T22:56:02.911Z,101408.50
2023-01-27T23:01:06.360Z,101407.28
2023-01-27T23:06:09.083Z,101409.84
2023-01-27T23:11:11.010Z,101414.50
2023-01-27T23:16:15.964Z,101407.56
2023-01-27T23:21:18.006Z,101409.50
2023-01-27T23:26:19.821Z,101416.03
2023-01-27T23:31:21.768Z,101414.91
2023-01-27T23:36:26.275Z,101413.03
2023-01-27T23:41:37.994Z,101408.53
2023-01-27T23:46:40.511Z,101412.50
2023-01-27T23:51:42.225Z,101405.88
2023-01-27T23:56:51.718Z,101404.59
